Terminal Aerodrome Forecast
Issued by NWS Bismarck, ND

Home | Current Version | Previous Version | Text Only | Print | Product List | Glossary Off
Versions: 1 2 3 4 5 6 7 8 9 10 11 12 13 14 15 16 17 18 19 20

000
FTUS43 KBIS 241900 AAB
TAFBIS
TAF AMD
KBIS 241953Z 2420/2518 27024G30KT 5SM -RA BR BKN025 OVC035
      TEMPO 2420/2421 2SM RA BR BKN015 OVC025
     FM242100 28018G28KT 4SM -RASN SCT008 BKN015 OVC025
     FM250000 30020G28KT 5SM -SN BR SCT005 BKN012 OVC020
     FM250600 31020G28KT 5SM BR BKN005 OVC012
     FM251500 32020G30KT P6SM SCT012 OVC035=

USA.gov is the U.S. government's official web portal to all federal, state and local government web resources and services.